Time;durP1;ratioP1;P1;durP2;ratioP2;P2;SDS_P1;SDS_P2;PMS_P1;PMS_P2;Temp;Humidity;BMP_temperature;BMP_pressure;BME280_temperature;BME280_humidity;BME280_pressure;Samples;Min_cycle;Max_cycle;Signal;HPM_P1;HPM_P2
2021/09/08 00:01:04;;;;;;;16.23;14.30;;;18.20;99.90;;;;;;4955510;28;20531;-67
2021/09/08 00:03:30;;;;;;;15.20;13.70;;;18.30;99.90;;;;;;4955884;29;20192;-67
2021/09/08 00:05:56;;;;;;;16.07;14.37;;;18.30;99.90;;;;;;4952057;28;20417;-67
2021/09/08 00:08:22;;;;;;;15.97;13.70;;;18.30;99.90;;;;;;4928155;29;20273;-68
2021/09/08 00:10:47;;;;;;;16.07;14.27;;;18.20;99.90;;;;;;4944252;28;20181;-72
2021/09/08 00:13:14;;;;;;;14.57;13.27;;;18.20;99.90;;;;;;4943443;29;20460;-68
2021/09/08 00:15:39;;;;;;;17.33;15.53;;;18.20;99.90;;;;;;4946484;29;20227;-67
2021/09/08 00:18:05;;;;;;;18.67;13.10;;;18.10;99.90;;;;;;4944054;29;20434;-67
2021/09/08 00:20:31;;;;;;;16.63;14.60;;;18.00;99.90;;;;;;4945966;28;20244;-67
2021/09/08 00:22:57;;;;;;;17.70;15.20;;;18.00;99.90;;;;;;4941900;29;20209;-68
2021/09/08 00:25:23;;;;;;;18.70;14.80;;;18.00;99.90;;;;;;4928402;29;20499;-67
2021/09/08 00:27:48;;;;;;;17.63;15.87;;;18.00;99.90;;;;;;4944030;29;20553;-67
2021/09/08 00:30:14;;;;;;;16.10;14.17;;;17.90;99.90;;;;;;4943706;28;20185;-69
2021/09/08 00:32:41;;;;;;;15.97;14.37;;;17.90;99.90;;;;;;4945669;29;20173;-67
2021/09/08 00:35:08;;;;;;;18.90;14.80;;;18.00;99.90;;;;;;4942526;29;20190;-67
2021/09/08 00:37:38;;;;;;;16.30;14.40;;;18.00;99.90;;;;;;4954594;29;20424;-67
2021/09/08 00:40:04;;;;;;;16.70;14.97;;;18.00;99.90;;;;;;4949899;29;20471;-68
2021/09/08 00:42:30;;;;;;;16.00;14.50;;;18.00;99.90;;;;;;4927560;29;20544;-67
2021/09/08 00:44:56;;;;;;;16.40;14.70;;;18.00;99.90;;;;;;4944314;29;20829;-67
2021/09/08 00:47:22;;;;;;;16.80;14.50;;;17.90;99.90;;;;;;4926692;29;20181;-67
2021/09/08 00:49:47;;;;;;;16.37;13.77;;;18.00;99.90;;;;;;4944856;29;20559;-72
2021/09/08 00:52:15;;;;;;;17.17;14.57;;;17.90;99.90;;;;;;4947278;29;20214;-68
2021/09/08 00:54:49;;;;;;;15.60;14.00;;;18.00;99.90;;;;;;4910059;29;20533;-67
2021/09/08 00:57:16;;;;;;;16.03;13.70;;;18.00;99.90;;;;;;4942685;29;20759;-67
2021/09/08 00:59:43;;;;;;;16.87;14.57;;;17.90;99.90;;;;;;4944063;29;20433;-67
2021/09/08 01:02:09;;;;;;;15.83;14.03;;;17.90;99.90;;;;;;4945176;28;20468;-67
2021/09/08 01:04:34;;;;;;;15.40;13.77;;;17.90;99.90;;;;;;4942802;29;20433;-67
2021/09/08 01:07:04;;;;;;;15.77;14.07;;;17.80;99.90;;;;;;4945128;29;20517;-67
2021/09/08 01:09:30;;;;;;;15.60;14.10;;;17.80;99.90;;;;;;4925397;29;20696;-67
2021/09/08 01:11:57;;;;;;;14.43;12.93;;;17.90;99.90;;;;;;4923029;29;20417;-67
2021/09/08 01:14:22;;;;;;;14.10;12.70;;;17.80;99.90;;;;;;4945254;29;21243;-69
2021/09/08 01:16:53;;;;;;;14.17;12.67;;;17.80;99.90;;;;;;4957190;28;20520;-71
2021/09/08 01:19:20;;;;;;;17.13;15.30;;;17.70;99.90;;;;;;4941602;29;20296;-67
2021/09/08 01:21:46;;;;;;;16.07;13.37;;;17.80;99.90;;;;;;4951172;29;20460;-72
2021/09/08 01:24:13;;;;;;;16.10;13.70;;;17.70;99.90;;;;;;4937291;29;20436;-67
2021/09/08 01:26:40;;;;;;;16.30;14.63;;;17.70;99.90;;;;;;4954682;29;20448;-67
2021/09/08 01:29:06;;;;;;;16.40;13.20;;;17.70;99.90;;;;;;4936308;29;20432;-68
2021/09/08 01:31:32;;;;;;;16.40;14.00;;;17.70;99.90;;;;;;4954508;28;20432;-67
2021/09/08 01:33:58;;;;;;;16.30;13.03;;;17.70;99.90;;;;;;4953729;29;20435;-67
2021/09/08 01:36:24;;;;;;;15.47;12.80;;;17.70;99.90;;;;;;4953070;29;20412;-68
2021/09/08 01:38:49;;;;;;;13.33;11.97;;;17.70;99.90;;;;;;4952629;28;20180;-68
2021/09/08 01:41:15;;;;;;;15.27;12.90;;;17.70;99.90;;;;;;4954089;28;20267;-67
2021/09/08 01:43:45;;;;;;;15.33;13.40;;;17.70;99.90;;;;;;4954299;29;20195;-67
2021/09/08 01:46:21;;;;;;;14.03;12.63;;;17.70;99.90;;;;;;4919087;29;20205;-67
2021/09/08 01:48:47;;;;;;;16.67;13.53;;;17.70;99.90;;;;;;4934911;29;20401;-72
2021/09/08 01:51:13;;;;;;;16.97;14.00;;;17.60;99.90;;;;;;4947271;29;20990;-67
2021/09/08 01:53:39;;;;;;;15.93;13.57;;;17.60;99.90;;;;;;4954360;29;20185;-67
2021/09/08 01:56:05;;;;;;;18.63;14.93;;;17.60;99.90;;;;;;4953589;29;20623;-67
2021/09/08 01:58:31;;;;;;;17.80;14.50;;;17.60;99.90;;;;;;4953977;29;20912;-67
2021/09/08 02:00:57;;;;;;;15.97;14.20;;;17.50;99.90;;;;;;4952895;29;20267;-67
2021/09/08 02:03:23;;;;;;;15.23;13.27;;;17.50;99.90;;;;;;4969086;28;20425;-67
2021/09/08 02:05:49;;;;;;;16.17;14.47;;;17.50;99.90;;;;;;4953573;29;20448;-72
2021/09/08 02:08:15;;;;;;;15.00;13.50;;;17.50;99.90;;;;;;4954271;29;20177;-67
2021/09/08 02:10:41;;;;;;;17.43;15.00;;;17.50;99.90;;;;;;4937052;29;20655;-67
2021/09/08 02:13:07;;;;;;;14.63;13.10;;;17.50;99.90;;;;;;4953034;29;20194;-67
2021/09/08 02:15:33;;;;;;;15.70;13.13;;;17.50;99.90;;;;;;4953517;29;20424;-67
2021/09/08 02:17:59;;;;;;;16.03;12.50;;;17.50;99.90;;;;;;4953298;29;20196;-67
2021/09/08 02:20:24;;;;;;;16.00;13.73;;;17.50;99.90;;;;;;4953727;29;20464;-67
2021/09/08 02:22:50;;;;;;;17.43;14.30;;;17.50;99.90;;;;;;4953195;29;20192;-73
2021/09/08 02:25:16;;;;;;;16.00;13.73;;;17.50;99.90;;;;;;4954043;29;20415;-67
2021/09/08 02:27:42;;;;;;;15.93;14.30;;;17.50;99.90;;;;;;4954028;29;20259;-67
2021/09/08 02:30:09;;;;;;;14.73;13.23;;;17.50;99.90;;;;;;4952574;29;20544;-67
2021/09/08 02:32:35;;;;;;;16.07;14.37;;;17.40;99.90;;;;;;4953350;29;20432;-67
2021/09/08 02:35:01;;;;;;;19.50;14.93;;;17.40;99.90;;;;;;4952582;29;20908;-67
2021/09/08 02:37:26;;;;;;;16.50;14.87;;;17.30;99.90;;;;;;4953363;29;20423;-67
2021/09/08 02:39:52;;;;;;;16.27;14.67;;;17.30;99.90;;;;;;4936083;29;20557;-68
2021/09/08 02:42:18;;;;;;;16.93;15.10;;;17.30;99.90;;;;;;4953611;29;20567;-67
2021/09/08 02:44:44;;;;;;;17.63;15.83;;;17.30;99.90;;;;;;4942170;28;20190;-67
2021/09/08 02:47:13;;;;;;;18.10;15.57;;;17.30;99.90;;;;;;4933852;29;20272;-67
2021/09/08 02:49:39;;;;;;;23.53;15.50;;;17.30;99.90;;;;;;4934126;29;20530;-71
2021/09/08 02:52:05;;;;;;;16.53;14.83;;;17.30;99.90;;;;;;4952931;29;20447;-68
2021/09/08 02:54:30;;;;;;;16.97;15.30;;;17.20;99.90;;;;;;4956802;28;20416;-67
2021/09/08 02:56:56;;;;;;;17.17;15.30;;;17.20;99.90;;;;;;4956380;29;20560;-68
2021/09/08 02:59:22;;;;;;;16.87;14.73;;;17.20;99.90;;;;;;4957088;29;20263;-67
2021/09/08 03:01:48;;;;;;;19.87;16.30;;;17.20;99.90;;;;;;4957196;29;20216;-67
2021/09/08 03:04:13;;;;;;;17.77;15.80;;;17.20;99.90;;;;;;4955258;29;20579;-67
2021/09/08 03:06:39;;;;;;;17.20;15.50;;;17.10;99.90;;;;;;4957274;29;20534;-68
2021/09/08 03:09:05;;;;;;;18.27;16.33;;;17.10;99.90;;;;;;4956277;28;20173;-67
2021/09/08 03:11:31;;;;;;;17.77;16.07;;;17.00;99.90;;;;;;4956061;29;20271;-67
2021/09/08 03:13:56;;;;;;;16.53;13.63;;;17.00;99.90;;;;;;4956586;29;20275;-67
2021/09/08 03:16:22;;;;;;;16.67;14.80;;;17.00;99.90;;;;;;4956430;29;20209;-67
2021/09/08 03:18:48;;;;;;;15.80;14.27;;;17.00;99.90;;;;;;4939156;29;20551;-67
2021/09/08 03:21:14;;;;;;;15.83;13.90;;;17.00;99.90;;;;;;4956315;29;20324;-67
2021/09/08 03:23:39;;;;;;;15.33;13.73;;;17.00;99.90;;;;;;4956378;28;20479;-67
2021/09/08 03:26:05;;;;;;;16.67;15.00;;;17.00;99.90;;;;;;4956008;28;20633;-67
2021/09/08 03:28:31;;;;;;;16.33;14.63;;;17.00;99.90;;;;;;4956640;29;20216;-67
2021/09/08 03:30:56;;;;;;;15.77;14.07;;;17.00;99.90;;;;;;4939015;29;20193;-67
2021/09/08 03:33:22;;;;;;;20.63;17.30;;;17.00;99.90;;;;;;4956628;28;20542;-67
2021/09/08 03:35:48;;;;;;;17.33;15.57;;;17.00;99.90;;;;;;4956416;28;20189;-67
2021/09/08 03:38:14;;;;;;;17.23;15.37;;;16.90;99.90;;;;;;4955393;29;20195;-67
2021/09/08 03:40:39;;;;;;;16.70;15.07;;;16.90;99.90;;;;;;4956566;28;20256;-67
2021/09/08 03:43:05;;;;;;;16.37;14.73;;;16.90;99.90;;;;;;4938785;29;20687;-67
2021/09/08 03:45:32;;;;;;;16.47;14.53;;;16.90;99.90;;;;;;4956364;29;20177;-67
2021/09/08 03:47:57;;;;;;;20.50;16.30;;;16.80;99.90;;;;;;4956254;28;20559;-67
2021/09/08 03:50:23;;;;;;;23.20;19.70;;;16.90;99.90;;;;;;4956290;29;20519;-67
2021/09/08 03:52:50;;;;;;;28.53;25.43;;;16.90;99.90;;;;;;4956764;29;20667;-67
2021/09/08 03:55:16;;;;;;;22.17;16.53;;;16.80;99.90;;;;;;4956124;29;20745;-67
2021/09/08 03:57:42;;;;;;;16.20;14.50;;;16.70;99.90;;;;;;4956678;29;20438;-67
2021/09/08 04:00:09;;;;;;;20.83;16.70;;;16.80;99.90;;;;;;4956014;29;20405;-67
2021/09/08 04:02:35;;;;;;;17.67;15.13;;;16.70;99.90;;;;;;4956441;29;20371;-67
2021/09/08 04:05:01;;;;;;;18.10;16.20;;;16.70;99.90;;;;;;4954986;28;20420;-67
2021/09/08 04:07:27;;;;;;;19.00;15.67;;;16.70;99.90;;;;;;4956672;29;20843;-67
2021/09/08 04:09:53;;;;;;;21.20;15.93;;;16.70;99.90;;;;;;4956073;29;20428;-72
2021/09/08 04:12:19;;;;;;;16.60;14.30;;;16.70;99.90;;;;;;4956270;29;20499;-67
2021/09/08 04:14:45;;;;;;;18.03;15.53;;;16.70;99.90;;;;;;4956386;29;20512;-67
2021/09/08 04:17:11;;;;;;;21.47;16.53;;;16.70;99.90;;;;;;4955711;28;20212;-67
2021/09/08 04:19:37;;;;;;;22.90;18.70;;;16.70;99.90;;;;;;4956063;28;20217;-67
2021/09/08 04:22:02;;;;;;;21.53;16.77;;;16.70;99.90;;;;;;4955255;28;20205;-67
2021/09/08 04:24:28;;;;;;;21.63;17.40;;;16.60;99.90;;;;;;4939369;29;20188;-67
2021/09/08 04:26:54;;;;;;;27.10;20.73;;;16.60;99.90;;;;;;4955873;28;20758;-73
2021/09/08 04:29:20;;;;;;;24.60;18.80;;;16.60;99.90;;;;;;4956138;29;20190;-67
2021/09/08 04:31:45;;;;;;;24.67;19.40;;;16.60;99.90;;;;;;4956040;29;20188;-67
2021/09/08 04:34:11;;;;;;;32.67;22.00;;;16.60;99.90;;;;;;4955405;29;20174;-67
2021/09/08 04:36:37;;;;;;;24.07;21.50;;;16.50;99.90;;;;;;4956088;29;20653;-67
2021/09/08 04:39:03;;;;;;;27.60;21.43;;;16.50;99.90;;;;;;4937949;29;20227;-67
2021/09/08 04:41:29;;;;;;;24.93;20.43;;;16.50;99.90;;;;;;4955814;29;20720;-67
2021/09/08 04:43:55;;;;;;;26.30;21.03;;;16.50;99.90;;;;;;4938149;29;20495;-71
2021/09/08 04:46:21;;;;;;;24.97;18.47;;;16.50;99.90;;;;;;4955459;29;20424;-67
2021/09/08 04:48:47;;;;;;;20.37;17.30;;;16.50;99.90;;;;;;4955719;29;20432;-67
2021/09/08 04:51:13;;;;;;;27.20;21.10;;;16.50;99.90;;;;;;4955122;28;20185;-67
2021/09/08 04:53:38;;;;;;;22.83;17.90;;;16.40;99.90;;;;;;4955253;29;20189;-67
2021/09/08 04:56:04;;;;;;;23.13;18.73;;;16.40;99.90;;;;;;4954677;29;20201;-67
2021/09/08 04:58:30;;;;;;;19.27;17.23;;;16.50;99.90;;;;;;4938482;29;20176;-67
2021/09/08 05:00:56;;;;;;;19.73;17.73;;;16.40;99.90;;;;;;4955106;28;20459;-67
2021/09/08 05:03:21;;;;;;;23.57;18.80;;;16.50;99.90;;;;;;4955403;29;20208;-67
2021/09/08 05:05:47;;;;;;;22.00;17.63;;;16.40;99.90;;;;;;4954339;29;20188;-67
2021/09/08 05:08:13;;;;;;;19.07;16.47;;;16.50;99.90;;;;;;4954814;29;20587;-67
2021/09/08 05:10:39;;;;;;;21.70;16.50;;;16.50;99.90;;;;;;4955020;29;20204;-67
2021/09/08 05:13:04;;;;;;;21.30;16.30;;;16.50;99.90;;;;;;4938276;29;20453;-67
2021/09/08 05:15:30;;;;;;;17.77;15.13;;;16.50;99.90;;;;;;4935831;29;20181;-67
2021/09/08 05:17:56;;;;;;;18.20;15.93;;;16.50;99.90;;;;;;4935235;29;20182;-67
2021/09/08 05:20:22;;;;;;;18.90;15.33;;;16.50;99.90;;;;;;4941515;29;20307;-67
2021/09/08 05:22:47;;;;;;;21.10;16.17;;;16.50;99.90;;;;;;4955027;29;20224;-67
2021/09/08 05:25:13;;;;;;;18.53;15.10;;;16.50;99.90;;;;;;4954428;29;20255;-67
2021/09/08 05:27:39;;;;;;;19.27;15.30;;;16.50;99.90;;;;;;4954069;28;20264;-67
2021/09/08 05:30:06;;;;;;;19.37;17.50;;;16.50;99.90;;;;;;4953524;28;20181;-67
2021/09/08 05:32:31;;;;;;;17.30;15.37;;;16.50;99.90;;;;;;4954524;29;20248;-67
2021/09/08 05:34:57;;;;;;;20.33;16.20;;;16.50;99.90;;;;;;4953205;28;20436;-67
2021/09/08 05:37:25;;;;;;;24.80;17.87;;;16.50;99.90;;;;;;4953881;29;20173;-67
2021/09/08 05:39:51;;;;;;;23.43;17.67;;;16.50;99.90;;;;;;4953646;29;20621;-67
2021/09/08 05:42:17;;;;;;;20.53;18.40;;;16.50;99.90;;;;;;4952768;29;20487;-68
2021/09/08 05:44:42;;;;;;;21.57;19.27;;;16.50;99.90;;;;;;4953702;29;20195;-66
2021/09/08 05:47:08;;;;;;;22.63;18.23;;;16.50;99.90;;;;;;4954152;29;20187;-67
2021/09/08 05:49:34;;;;;;;22.57;20.13;;;16.60;99.90;;;;;;4954058;29;20223;-67
2021/09/08 05:52:00;;;;;;;22.63;18.80;;;16.60;99.90;;;;;;4951445;29;20239;-74
2021/09/08 05:54:25;;;;;;;21.77;18.77;;;16.70;99.90;;;;;;4953773;28;20215;-68
2021/09/08 05:56:56;;;;;;;20.57;16.33;;;16.70;99.90;;;;;;4946097;29;20209;-67
2021/09/08 05:59:22;;;;;;;19.43;16.20;;;16.80;99.90;;;;;;4935141;29;20170;-67
2021/09/08 06:01:47;;;;;;;20.20;18.20;;;16.80;99.90;;;;;;4935003;29;20604;-66
2021/09/08 06:04:13;;;;;;;22.23;17.00;;;16.90;99.90;;;;;;4941262;29;20609;-67
2021/09/08 06:06:39;;;;;;;17.90;16.00;;;17.00;99.90;;;;;;4954471;29;20188;-67
2021/09/08 06:09:04;;;;;;;20.53;18.30;;;17.00;99.90;;;;;;4953857;28;20177;-67
2021/09/08 06:11:30;;;;;;;20.07;18.10;;;17.00;99.90;;;;;;4949733;29;20191;-68
2021/09/08 06:13:56;;;;;;;25.73;17.13;;;17.00;99.90;;;;;;4940117;29;20182;-68
2021/09/08 06:16:22;;;;;;;30.73;24.40;;;17.30;99.90;;;;;;4943827;29;20185;-68
2021/09/08 06:18:48;;;;;;;21.27;17.77;;;17.50;99.90;;;;;;4950554;28;20264;-68
2021/09/08 06:21:14;;;;;;;19.10;17.10;;;17.70;99.90;;;;;;4953295;29;20577;-68
2021/09/08 06:23:40;;;;;;;21.00;16.13;;;17.90;99.90;;;;;;4954093;28;20185;-68
2021/09/08 06:26:05;;;;;;;23.03;17.20;;;18.10;99.90;;;;;;4949963;29;20424;-68
2021/09/08 06:28:31;;;;;;;21.53;18.10;;;18.30;99.90;;;;;;4955902;28;20181;-69
2021/09/08 06:30:57;;;;;;;20.30;17.60;;;18.50;99.90;;;;;;4957771;29;20672;-68
2021/09/08 06:33:23;;;;;;;23.70;18.13;;;18.60;99.90;;;;;;4944453;29;20548;-68
2021/09/08 06:35:49;;;;;;;25.67;17.90;;;18.70;99.90;;;;;;4940775;29;20632;-68
2021/09/08 06:38:16;;;;;;;18.50;16.53;;;18.80;99.90;;;;;;4947345;29;20184;-68
2021/09/08 06:40:41;;;;;;;22.40;17.97;;;18.90;99.90;;;;;;4938489;29;20405;-68
2021/09/08 06:43:07;;;;;;;24.23;18.70;;;19.10;99.90;;;;;;4938174;29;20827;-68
2021/09/08 06:45:33;;;;;;;21.50;18.73;;;19.20;99.90;;;;;;4938833;29;20181;-68
2021/09/08 06:47:59;;;;;;;20.07;16.70;;;19.30;99.90;;;;;;4938747;29;20178;-68
2021/09/08 06:50:24;;;;;;;20.33;18.23;;;19.40;99.90;;;;;;4944103;29;20680;-68
2021/09/08 06:52:50;;;;;;;19.50;17.40;;;19.40;99.90;;;;;;4957772;28;20626;-68
2021/09/08 06:55:16;;;;;;;22.57;20.27;;;19.60;99.90;;;;;;4957123;29;20633;-68
2021/09/08 06:57:41;;;;;;;21.93;19.20;;;19.70;99.90;;;;;;4957539;28;20173;-69
2021/09/08 07:00:08;;;;;;;21.33;18.87;;;19.70;99.90;;;;;;4955883;29;20189;-69
2021/09/08 07:02:33;;;;;;;21.37;19.20;;;19.80;99.90;;;;;;4954231;29;20291;-69
2021/09/08 07:04:59;;;;;;;21.03;18.93;;;19.80;99.90;;;;;;4946770;29;20464;-68
2021/09/08 07:07:25;;;;;;;19.70;16.80;;;19.90;99.90;;;;;;4957029;28;20181;-68
2021/09/08 07:09:50;;;;;;;22.33;18.00;;;19.90;99.90;;;;;;4950808;29;20188;-69
2021/09/08 07:12:16;;;;;;;18.27;16.43;;;20.00;99.90;;;;;;4934320;29;20197;-68
2021/09/08 07:14:42;;;;;;;17.10;15.30;;;20.10;99.90;;;;;;4955255;29;20188;-69
2021/09/08 07:17:07;;;;;;;17.53;15.63;;;20.10;99.90;;;;;;4956515;29;20189;-68
2021/09/08 07:19:33;;;;;;;22.00;19.00;;;20.20;99.90;;;;;;4956778;28;20219;-68
2021/09/08 07:22:00;;;;;;;18.13;15.77;;;20.20;99.90;;;;;;4957047;29;20237;-68
2021/09/08 07:24:26;;;;;;;16.30;14.60;;;20.30;99.90;;;;;;4955805;28;20435;-69
2021/09/08 07:26:56;;;;;;;21.00;18.90;;;20.30;99.90;;;;;;4938327;29;20422;-68
2021/09/08 07:29:23;;;;;;;19.03;17.03;;;20.30;99.90;;;;;;4937199;29;20751;-68
2021/09/08 07:31:49;;;;;;;18.20;16.30;;;20.40;99.90;;;;;;4937892;29;20464;-68
2021/09/08 07:34:14;;;;;;;18.33;16.37;;;20.40;99.90;;;;;;4937426;29;20893;-68
2021/09/08 07:36:40;;;;;;;20.80;18.67;;;20.30;99.90;;;;;;4939923;29;20185;-68
2021/09/08 07:39:06;;;;;;;18.97;15.80;;;20.30;99.90;;;;;;4955205;28;20647;-69
2021/09/08 07:41:31;;;;;;;16.47;14.87;;;20.40;99.90;;;;;;4955355;29;20469;-66
2021/09/08 07:43:58;;;;;;;16.67;14.90;;;20.40;99.90;;;;;;4956973;29;20536;-66
2021/09/08 07:46:24;;;;;;;16.70;15.00;;;20.40;99.90;;;;;;4956401;29;20261;-66
2021/09/08 07:48:50;;;;;;;15.87;14.20;;;20.20;99.90;;;;;;4956355;29;20416;-66
2021/09/08 07:51:16;;;;;;;15.40;14.00;;;20.30;99.90;;;;;;4956328;29;20435;-66
2021/09/08 07:53:42;;;;;;;17.73;15.93;;;20.20;99.90;;;;;;4950028;29;20508;-67
2021/09/08 07:56:08;;;;;;;16.23;14.40;;;20.30;99.90;;;;;;4941710;29;20185;-66
2021/09/08 07:58:34;;;;;;;17.30;15.30;;;20.30;99.90;;;;;;4942536;29;20264;-67
2021/09/08 08:01:00;;;;;;;17.27;14.77;;;20.30;99.90;;;;;;4955906;29;20460;-67
2021/09/08 08:03:26;;;;;;;16.70;15.20;;;20.30;99.90;;;;;;4954975;29;20424;-67
2021/09/08 08:05:52;;;;;;;16.60;15.00;;;20.30;99.90;;;;;;4956083;28;20184;-67
2021/09/08 08:08:18;;;;;;;13.80;12.40;;;20.30;99.90;;;;;;4955784;29;20424;-67
2021/09/08 08:10:45;;;;;;;18.43;16.73;;;20.30;99.90;;;;;;4955583;29;20436;-67
2021/09/08 08:13:10;;;;;;;16.70;15.00;;;20.40;99.90;;;;;;4934353;29;20445;-71
2021/09/08 08:15:36;;;;;;;16.37;14.77;;;20.40;99.90;;;;;;4953198;29;20436;-66
2021/09/08 08:18:02;;;;;;;17.30;14.90;;;20.30;99.90;;;;;;4949212;29;20181;-66
2021/09/08 08:20:27;;;;;;;16.90;15.10;;;20.40;99.90;;;;;;4943068;29;20240;-66
2021/09/08 08:22:53;;;;;;;17.13;15.43;;;20.50;99.90;;;;;;4955851;28;20295;-66
2021/09/08 08:25:27;;;;;;;16.43;14.63;;;20.60;99.90;;;;;;4955468;29;20636;-66
2021/09/08 08:27:53;;;;;;;23.07;17.47;;;20.70;99.90;;;;;;4955886;29;20208;-66
2021/09/08 08:30:18;;;;;;;24.53;20.90;;;20.80;99.90;;;;;;4952783;29;20413;-64
2021/09/08 08:32:44;;;;;;;26.37;21.80;;;20.80;99.90;;;;;;4955489;29;20420;-66
2021/09/08 08:35:11;;;;;;;19.53;16.00;;;20.90;99.90;;;;;;4955380;29;20578;-66
2021/09/08 08:37:37;;;;;;;16.70;15.00;;;20.90;99.90;;;;;;4955626;29;20456;-64
2021/09/08 08:40:05;;;;;;;16.43;14.73;;;21.00;99.90;;;;;;4955973;29;20413;-64
2021/09/08 08:42:31;;;;;;;16.10;13.80;;;21.10;99.90;;;;;;4955218;29;20977;-64
2021/09/08 08:44:58;;;;;;;15.70;14.20;;;21.20;99.90;;;;;;4955846;29;20495;-64
2021/09/08 08:47:24;;;;;;;15.90;14.30;;;21.30;99.90;;;;;;4955144;29;20169;-65
2021/09/08 08:49:52;;;;;;;16.20;14.50;;;21.40;99.90;;;;;;4955586;29;20417;-64
2021/09/08 08:52:19;;;;;;;17.00;15.33;;;21.50;99.90;;;;;;4954808;28;20420;-64
2021/09/08 08:54:45;;;;;;;18.20;16.27;;;21.50;99.90;;;;;;4955731;29;20409;-65
2021/09/08 08:57:12;;;;;;;17.83;16.07;;;21.60;99.90;;;;;;4955060;29;20520;-65
2021/09/08 08:59:39;;;;;;;16.53;14.90;;;21.70;99.90;;;;;;4955800;29;20197;-64
2021/09/08 09:02:21;;;;;;;17.87;16.17;;;21.80;99.90;;;;;;4955496;29;20456;-64
2021/09/08 09:04:49;;;;;;;16.63;15.10;;;21.80;99.90;;;;;;4955455;29;20428;-64
2021/09/08 09:07:48;;;;;;;18.07;16.17;;;21.90;99.90;;;;;;4954847;29;20401;-64
2021/09/08 09:10:14;;;;;;;17.60;15.80;;;22.00;99.90;;;;;;4887318;29;20420;-65
2021/09/08 09:12:43;;;;;;;18.70;16.90;;;22.10;99.90;;;;;;4955157;28;20492;-64
2021/09/08 09:15:14;;;;;;;16.30;14.80;;;22.20;99.90;;;;;;4955229;29;20181;-65
2021/09/08 09:17:41;;;;;;;16.00;14.47;;;22.50;99.90;;;;;;4954962;29;20905;-65
2021/09/08 09:20:32;;;;;;;16.97;15.40;;;22.70;99.90;;;;;;4946844;29;20562;-64
2021/09/08 09:23:01;;;;;;;16.17;14.63;;;22.90;99.90;;;;;;4940675;29;20450;-64
2021/09/08 09:25:30;;;;;;;16.50;14.90;;;23.20;99.90;;;;;;4935401;29;20453;-64
2021/09/08 09:27:58;;;;;;;14.47;13.20;;;23.50;99.90;;;;;;4935969;29;20409;-64
2021/09/08 09:30:27;;;;;;;16.43;14.77;;;23.70;99.90;;;;;;4934995;29;20743;-64
2021/09/08 09:32:54;;;;;;;14.33;12.60;;;24.00;99.90;;;;;;4935843;29;20504;-64
2021/09/08 09:35:25;;;;;;;17.17;15.47;;;24.20;99.90;;;;;;4954259;28;20506;-66
2021/09/08 09:37:56;;;;;;;13.43;12.13;;;24.50;99.90;;;;;;4974126;28;20420;-66
2021/09/08 09:40:24;;;;;;;15.73;14.40;;;24.80;99.90;;;;;;4973462;28;20773;-66
2021/09/08 09:42:51;;;;;;;14.40;12.90;;;25.00;99.90;;;;;;4973633;28;20452;-66
2021/09/08 09:45:16;;;;;;;14.43;13.13;;;25.30;99.90;;;;;;4973438;28;20415;-67
2021/09/08 09:47:45;;;;;;;13.83;12.43;;;25.60;99.70;;;;;;4974144;28;20818;-66
2021/09/08 09:50:18;;;;;;;13.93;12.73;;;25.90;98.70;;;;;;4969171;28;20184;-66
2021/09/08 09:52:49;;;;;;;14.23;12.93;;;26.10;96.90;;;;;;4954459;29;20781;-67
2021/09/08 09:55:16;;;;;;;14.50;13.10;;;26.30;97.00;;;;;;4954110;29;20416;-66
2021/09/08 09:57:42;;;;;;;13.03;11.93;;;26.60;96.10;;;;;;4954603;29;20462;-66
2021/09/08 10:00:09;;;;;;;14.00;12.90;;;26.90;95.50;;;;;;4954416;29;20420;-66
2021/09/08 10:02:35;;;;;;;13.87;12.77;;;26.90;92.20;;;;;;4953198;28;20516;-67
2021/09/08 10:05:02;;;;;;;15.27;12.87;;;27.00;91.70;;;;;;4954187;29;20496;-66
2021/09/08 10:07:28;;;;;;;15.30;14.00;;;27.10;90.80;;;;;;4953602;28;20181;-67
2021/09/08 10:10:02;;;;;;;13.70;12.47;;;27.30;92.10;;;;;;4954394;29;20428;-66
2021/09/08 10:12:38;;;;;;;14.40;13.17;;;27.50;90.50;;;;;;4954182;29;20178;-67
2021/09/08 10:15:06;;;;;;;13.93;12.83;;;27.60;90.40;;;;;;4954160;29;20400;-67
2021/09/08 10:17:43;;;;;;;13.57;12.30;;;27.80;90.80;;;;;;4953800;28;20528;-67
2021/09/08 10:20:11;;;;;;;14.80;13.60;;;28.00;88.80;;;;;;4953965;29;20468;-67
2021/09/08 10:22:39;;;;;;;12.83;11.73;;;28.10;87.00;;;;;;4953616;28;20547;-66
2021/09/08 10:25:16;;;;;;;13.97;12.50;;;28.30;88.80;;;;;;4954085;29;20523;-66
2021/09/08 10:27:43;;;;;;;12.60;11.60;;;28.50;86.30;;;;;;4954310;29;20401;-66
2021/09/08 10:30:11;;;;;;;14.40;13.20;;;28.70;88.50;;;;;;4954186;28;20499;-66
2021/09/08 10:32:37;;;;;;;12.73;11.73;;;28.40;80.10;;;;;;4953266;29;20440;-66
2021/09/08 10:35:15;;;;;;;13.20;12.20;;;28.20;82.50;;;;;;4951321;29;20482;-67
2021/09/08 10:37:52;;;;;;;14.33;13.23;;;28.30;79.20;;;;;;4948481;29;20507;-66
2021/09/08 10:40:20;;;;;;;13.33;12.27;;;28.30;77.70;;;;;;4942960;29;20398;-66
2021/09/08 10:42:53;;;;;;;13.13;12.13;;;28.40;82.90;;;;;;4951263;29;20506;-66
2021/09/08 10:45:21;;;;;;;12.43;11.47;;;28.50;82.40;;;;;;4953156;29;20405;-66
2021/09/08 10:47:49;;;;;;;12.60;11.37;;;28.60;77.90;;;;;;4953312;29;20648;-65
2021/09/08 10:50:14;;;;;;;12.13;11.23;;;28.70;78.50;;;;;;4950211;29;20483;-65
2021/09/08 10:52:42;;;;;;;10.80;10.00;;;28.70;71.10;;;;;;4952700;29;20420;-65
2021/09/08 10:55:08;;;;;;;12.30;11.40;;;28.90;74.50;;;;;;4953985;29;20188;-65
2021/09/08 10:57:49;;;;;;;14.30;13.30;;;29.10;77.20;;;;;;4953494;28;20405;-66
2021/09/08 11:00:42;;;;;;;13.07;12.03;;;29.20;77.30;;;;;;4954000;29;20604;-66
2021/09/08 11:03:15;;;;;;;13.60;12.80;;;29.30;79.20;;;;;;4949948;29;21068;-66
2021/09/08 11:05:57;;;;;;;12.27;11.37;;;29.40;71.90;;;;;;4953596;29;20924;-65
2021/09/08 11:08:31;;;;;;;13.10;12.30;;;29.50;69.90;;;;;;4952622;29;20405;-66
2021/09/08 11:11:17;;;;;;;11.40;10.60;;;29.60;65.20;;;;;;4953342;29;20424;-65
2021/09/08 11:13:45;;;;;;;11.80;11.00;;;29.50;64.50;;;;;;4953341;28;20872;-65
2021/09/08 11:16:27;;;;;;;11.10;10.27;;;29.40;67.30;;;;;;4939777;29;20419;-66
2021/09/08 11:18:56;;;;;;;11.30;10.40;;;29.40;67.70;;;;;;4956948;29;20816;-65
2021/09/08 11:21:30;;;;;;;10.70;9.90;;;29.30;65.60;;;;;;4956529;29;21010;-65
2021/09/08 11:23:58;;;;;;;11.77;10.97;;;29.30;64.40;;;;;;4957241;29;20746;-65
2021/09/08 11:26:26;;;;;;;10.53;9.73;;;29.30;64.20;;;;;;4956391;29;20405;-66
2021/09/08 11:28:58;;;;;;;10.93;10.23;;;29.30;64.40;;;;;;4956939;29;20541;-65
2021/09/08 11:31:23;;;;;;;10.50;9.70;;;29.30;64.50;;;;;;4956519;29;20472;-66
2021/09/08 11:33:49;;;;;;;10.77;9.60;;;29.30;64.60;;;;;;4956995;29;20429;-66
2021/09/08 11:36:17;;;;;;;9.70;9.00;;;29.40;66.00;;;;;;4956970;29;20181;-66
2021/09/08 11:38:57;;;;;;;10.07;9.43;;;29.50;64.30;;;;;;4956922;29;20269;-66
2021/09/08 11:41:26;;;;;;;11.43;10.50;;;29.70;65.50;;;;;;4956566;29;20448;-65
2021/09/08 11:43:55;;;;;;;11.00;10.20;;;29.70;64.50;;;;;;4956751;28;20420;-64
2021/09/08 11:46:32;;;;;;;10.60;9.90;;;29.80;65.60;;;;;;4956160;29;20818;-66
2021/09/08 11:49:06;;;;;;;10.20;9.50;;;29.70;61.50;;;;;;4956781;29;20396;-65
2021/09/08 11:51:35;;;;;;;10.70;9.80;;;29.70;63.10;;;;;;4956032;29;20433;-65
2021/09/08 11:54:04;;;;;;;11.07;10.17;;;29.50;62.10;;;;;;4956547;28;20425;-65
2021/09/08 11:56:30;;;;;;;10.30;9.50;;;29.50;62.90;;;;;;4956058;29;20409;-65
2021/09/08 11:59:01;;;;;;;9.43;8.60;;;29.50;62.60;;;;;;4956587;29;20420;-65
2021/09/08 12:01:38;;;;;;;10.50;9.63;;;29.50;60.80;;;;;;4955629;29;20519;-65
2021/09/08 12:04:05;;;;;;;10.20;9.50;;;29.60;63.00;;;;;;4956393;29;20416;-65
2021/09/08 12:06:53;;;;;;;10.07;9.37;;;29.70;60.40;;;;;;4955561;29;20404;-65
2021/09/08 12:09:24;;;;;;;10.60;9.70;;;29.80;60.70;;;;;;4955885;29;20464;-71
2021/09/08 12:11:57;;;;;;;10.60;9.70;;;29.80;59.50;;;;;;4956086;29;20405;-66
2021/09/08 12:14:25;;;;;;;11.47;10.67;;;29.90;63.40;;;;;;4955891;29;20416;-66
2021/09/08 12:16:56;;;;;;;9.40;8.70;;;29.90;60.00;;;;;;4956232;29;20463;-65
2021/09/08 12:19:27;;;;;;;10.13;9.33;;;29.70;60.50;;;;;;4952370;29;20507;-66
2021/09/08 12:22:01;;;;;;;8.60;7.90;;;29.60;63.20;;;;;;4955846;29;20464;-64
2021/09/08 12:24:31;;;;;;;9.10;8.50;;;29.60;63.10;;;;;;4947029;29;20686;-65
2021/09/08 12:26:58;;;;;;;9.20;8.50;;;29.70;62.60;;;;;;4936249;29;20904;-66
2021/09/08 12:29:25;;;;;;;9.00;8.40;;;29.70;61.10;;;;;;4936066;29;20441;-65